createdAt,value
2023-03-28T00:00:48.008Z,84.70
2023-03-28T00:03:18.916Z,84.70
2023-03-28T00:05:49.080Z,84.80
2023-03-28T00:08:19.157Z,85.30
2023-03-28T00:10:45.948Z,85.80
2023-03-28T00:13:14.054Z,86.90
2023-03-28T00:15:42.611Z,87.60
2023-03-28T00:18:12.790Z,88.20
2023-03-28T00:20:43.435Z,87.30
2023-03-28T00:23:12.030Z,85.30
2023-03-28T00:25:41.586Z,85.40
2023-03-28T00:28:08.681Z,84.90
2023-03-28T00:30:35.586Z,83.20
2023-03-28T00:33:05.100Z,83.90
2023-03-28T00:35:32.551Z,84.40
2023-03-28T00:37:59.258Z,84.10
2023-03-28T00:40:26.805Z,84.20
2023-03-28T00:42:54.304Z,84.60
2023-03-28T00:45:23.931Z,84.90
2023-03-28T00:47:57.486Z,85.10
2023-03-28T00:50:30.712Z,85.00
2023-03-28T00:53:14.983Z,84.80
2023-03-28T00:56:01.965Z,84.40
2023-03-28T00:58:32.624Z,83.90
2023-03-28T01:00:59.581Z,83.20
2023-03-28T01:03:33.533Z,82.50
2023-03-28T01:06:04.430Z,82.00
2023-03-28T01:08:40.020Z,81.70
2023-03-28T01:11:07.544Z,81.80
2023-03-28T01:13:38.609Z,82.10
2023-03-28T01:16:07.053Z,82.30
2023-03-28T01:18:35.851Z,82.70
2023-03-28T01:21:34.404Z,82.70
2023-03-28T01:24:12.448Z,82.60
2023-03-28T01:26:54.764Z,82.60
2023-03-28T01:29:30.356Z,82.40
2023-03-28T01:32:27.980Z,82.70
2023-03-28T01:35:26.280Z,83.00
2023-03-28T01:37:57.666Z,82.50
2023-03-28T01:40:32.995Z,82.50
2023-03-28T01:43:18.090Z,82.70
2023-03-28T01:46:06.085Z,83.10
2023-03-28T01:48:54.751Z,83.10
2023-03-28T01:51:36.278Z,83.50
2023-03-28T01:54:17.989Z,83.40
2023-03-28T01:57:13.744Z,83.60
2023-03-28T02:00:11.960Z,83.10
2023-03-28T02:03:06.029Z,82.60
2023-03-28T02:05:39.460Z,82.20
2023-03-28T02:08:11.921Z,81.70
2023-03-28T02:10:50.678Z,82.00
2023-03-28T02:13:43.605Z,81.80
2023-03-28T02:16:33.469Z,82.30
2023-03-28T02:19:08.614Z,82.80
2023-03-28T02:21:53.778Z,83.10
2023-03-28T02:24:27.634Z,83.40
2023-03-28T02:27:22.625Z,83.60
2023-03-28T02:29:58.868Z,83.40
2023-03-28T02:32:34.305Z,83.60
2023-03-28T02:35:04.441Z,83.50
2023-03-28T02:37:42.232Z,83.60
2023-03-28T02:40:32.841Z,83.60
2023-03-28T02:43:24.370Z,83.50
2023-03-28T02:46:04.627Z,83.30
2023-03-28T02:48:48.880Z,83.40
2023-03-28T02:51:22.605Z,83.00
2023-03-28T02:54:04.413Z,83.40
2023-03-28T02:56:51.237Z,83.70
2023-03-28T02:59:38.560Z,84.00
2023-03-28T03:02:05.487Z,84.00
2023-03-28T03:04:32.180Z,84.10
2023-03-28T03:07:01.956Z,84.20
2023-03-28T03:09:30.735Z,84.20
2023-03-28T03:11:57.377Z,84.10
2023-03-28T03:14:24.188Z,84.40
2023-03-28T03:16:52.991Z,84.60
2023-03-28T03:19:19.775Z,84.60
2023-03-28T03:21:46.572Z,84.50
2023-03-28T03:24:14.407Z,84.50
2023-03-28T03:26:43.258Z,84.70
2023-03-28T03:29:15.704Z,84.90
2023-03-28T03:31:42.537Z,85.20
2023-03-28T03:34:29.189Z,85.10
2023-03-28T03:36:58.352Z,84.80
2023-03-28T03:39:25.171Z,84.40
2023-03-28T03:41:51.870Z,84.10
2023-03-28T03:44:18.552Z,84.10
2023-03-28T03:46:45.765Z,83.70
2023-03-28T03:49:13.011Z,83.40
2023-03-28T03:51:39.974Z,83.20
2023-03-28T03:54:07.253Z,83.40
2023-03-28T03:56:36.957Z,82.80
2023-03-28T03:59:04.077Z,82.50
2023-03-28T04:01:32.620Z,83.50
2023-03-28T04:04:11.835Z,83.80
2023-03-28T04:07:00.192Z,83.60
2023-03-28T04:09:27.965Z,83.60
2023-03-28T04:12:01.687Z,83.60
2023-03-28T04:14:29.644Z,83.00
2023-03-28T04:17:29.786Z,83.50
2023-03-28T04:19:58.278Z,83.20
2023-03-28T04:22:29.662Z,82.50
2023-03-28T04:24:57.267Z,82.60
2023-03-28T04:27:35.665Z,82.80
2023-03-28T04:30:03.284Z,82.90
2023-03-28T04:32:49.566Z,82.40
2023-03-28T04:35:24.117Z,82.60
2023-03-28T04:37:53.585Z,83.10
2023-03-28T04:40:21.610Z,82.70
2023-03-28T04:42:53.441Z,82.70
2023-03-28T04:45:27.565Z,82.90
2023-03-28T04:47:58.587Z,82.80
2023-03-28T04:50:25.393Z,83.00
2023-03-28T04:52:52.809Z,83.60
2023-03-28T04:55:20.022Z,83.00
2023-03-28T04:57:48.482Z,83.10
2023-03-28T05:00:18.253Z,83.20
2023-03-28T05:03:06.520Z,83.20
2023-03-28T05:05:40.266Z,83.00
2023-03-28T05:08:10.185Z,83.70
2023-03-28T05:10:36.863Z,83.20
2023-03-28T05:13:06.587Z,83.10
2023-03-28T05:15:42.162Z,82.90
2023-03-28T05:18:33.238Z,82.80
2023-03-28T05:21:00.513Z,83.20
2023-03-28T05:23:27.512Z,83.30
2023-03-28T05:25:55.299Z,82.90
2023-03-28T05:28:22.352Z,83.10
2023-03-28T05:30:52.426Z,82.30
2023-03-28T05:33:19.220Z,81.50
2023-03-28T05:35:47.347Z,81.70
2023-03-28T05:38:14.423Z,81.70
2023-03-28T05:40:42.733Z,81.70
2023-03-28T05:43:09.420Z,81.60
2023-03-28T05:45:36.604Z,81.10
2023-03-28T05:48:08.911Z,80.70
2023-03-28T05:50:36.621Z,81.00
2023-03-28T05:53:06.476Z,81.00
2023-03-28T05:55:35.555Z,80.60
2023-03-28T05:58:03.202Z,80.60
2023-03-28T06:00:37.707Z,80.10
2023-03-28T06:03:07.390Z,80.40
2023-03-28T06:05:37.353Z,79.70
2023-03-28T06:08:10.044Z,79.00
2023-03-28T06:10:37.295Z,78.10
2023-03-28T06:13:16.823Z,78.10
2023-03-28T06:15:46.382Z,77.30
2023-03-28T06:18:13.600Z,78.10
2023-03-28T06:20:44.957Z,77.60
2023-03-28T06:23:12.111Z,76.90
2023-03-28T06:25:38.783Z,77.10
2023-03-28T06:28:06.158Z,76.50
2023-03-28T06:30:39.876Z,77.10
2023-03-28T06:33:08.734Z,77.10
2023-03-28T06:35:35.978Z,76.70
2023-03-28T06:38:03.292Z,77.60
2023-03-28T06:40:30.340Z,77.40
2023-03-28T06:42:59.752Z,76.60
2023-03-28T06:45:38.642Z,75.40
2023-03-28T06:48:09.986Z,74.80
2023-03-28T06:51:08.048Z,75.10
2023-03-28T06:53:36.118Z,74.40
2023-03-28T06:56:02.948Z,74.00
2023-03-28T06:58:30.797Z,74.90
2023-03-28T07:01:05.951Z,76.10
2023-03-28T07:03:52.041Z,75.90
2023-03-28T07:06:21.389Z,74.20
2023-03-28T07:08:48.485Z,74.30
2023-03-28T07:11:17.583Z,73.80
2023-03-28T07:13:48.185Z,73.50
2023-03-28T07:16:15.915Z,73.70
2023-03-28T07:18:43.879Z,73.10
2023-03-28T07:21:16.354Z,72.50
2023-03-28T07:23:44.691Z,72.90
2023-03-28T07:26:14.642Z,72.80
2023-03-28T07:28:41.773Z,72.30
2023-03-28T07:31:08.735Z,71.60
2023-03-28T07:33:38.273Z,72.10
2023-03-28T07:36:17.988Z,70.90
2023-03-28T07:38:49.686Z,70.80
2023-03-28T07:41:18.336Z,70.20
2023-03-28T07:43:45.258Z,69.30
2023-03-28T07:46:14.403Z,69.20
2023-03-28T07:48:42.058Z,69.10
2023-03-28T07:51:10.648Z,68.80
2023-03-28T07:53:38.043Z,68.80
2023-03-28T07:56:10.494Z,68.60
2023-03-28T07:58:57.193Z,68.40
2023-03-28T08:01:23.934Z,69.40
2023-03-28T08:04:00.913Z,68.10
2023-03-28T08:06:40.596Z,67.10
2023-03-28T08:09:08.873Z,67.70
2023-03-28T08:11:44.316Z,66.70
2023-03-28T08:14:16.915Z,66.00
2023-03-28T08:16:45.245Z,65.30
2023-03-28T08:19:12.377Z,65.40
2023-03-28T08:22:05.530Z,66.60
2023-03-28T08:24:40.388Z,66.70
2023-03-28T08:27:12.836Z,65.40
2023-03-28T08:29:41.666Z,65.80
2023-03-28T08:32:09.522Z,66.00
2023-03-28T08:34:37.284Z,67.40
2023-03-28T08:37:10.769Z,67.60
2023-03-28T08:39:39.694Z,68.00
2023-03-28T08:42:32.984Z,68.00
2023-03-28T08:45:21.469Z,68.30
2023-03-28T08:47:57.075Z,67.80
2023-03-28T08:50:30.732Z,66.50
2023-03-28T08:52:58.008Z,67.70
2023-03-28T08:55:28.059Z,66.60
2023-03-28T08:57:55.802Z,66.10
2023-03-28T09:00:29.572Z,63.90
2023-03-28T09:02:57.011Z,65.00
2023-03-28T09:05:48.456Z,64.90
2023-03-28T09:08:45.888Z,64.10
2023-03-28T09:11:41.316Z,65.50
2023-03-28T09:14:41.011Z,65.30
2023-03-28T09:17:40.454Z,64.20
2023-03-28T09:20:20.383Z,61.80
2023-03-28T09:23:44.635Z,63.60
2023-03-28T09:26:43.406Z,62.80
2023-03-28T09:29:23.446Z,62.40
2023-03-28T09:31:56.232Z,62.10
2023-03-28T09:34:27.752Z,61.00
2023-03-28T09:37:23.815Z,61.60
2023-03-28T09:39:53.419Z,63.80
2023-03-28T09:42:32.010Z,65.40
2023-03-28T09:45:36.179Z,65.90
2023-03-28T09:48:26.069Z,66.80
2023-03-28T09:50:54.348Z,66.40
2023-03-28T09:53:30.004Z,66.20
2023-03-28T09:56:05.006Z,65.40
2023-03-28T09:58:58.427Z,66.20
2023-03-28T10:01:51.506Z,65.60
2023-03-28T10:04:38.062Z,64.00
2023-03-28T10:07:42.258Z,64.70
2023-03-28T10:10:22.296Z,64.10
2023-03-28T10:12:59.095Z,63.40
2023-03-28T10:15:40.142Z,64.40
2023-03-28T10:18:30.681Z,63.80
2023-03-28T10:21:24.300Z,60.70
2023-03-28T10:24:09.384Z,62.20
2023-03-28T10:26:37.479Z,59.40
2023-03-28T10:29:07.548Z,60.00
2023-03-28T10:31:38.731Z,60.70
2023-03-28T10:34:28.791Z,59.20
2023-03-28T10:37:23.948Z,57.30
2023-03-28T10:40:22.441Z,55.80
2023-03-28T10:43:16.665Z,57.40
2023-03-28T10:45:51.383Z,56.70
2023-03-28T10:48:36.231Z,55.80
2023-03-28T10:51:19.563Z,59.30
2023-03-28T10:54:16.334Z,55.40
2023-03-28T10:56:52.650Z,54.00
2023-03-28T10:59:47.440Z,54.40
2023-03-28T11:03:10.080Z,53.60
2023-03-28T11:06:09.997Z,54.40
2023-03-28T11:09:14.561Z,55.80
2023-03-28T11:12:27.994Z,55.40
2023-03-28T11:14:56.272Z,52.10
2023-03-28T11:17:38.677Z,52.90
2023-03-28T11:20:48.823Z,51.10
2023-03-28T11:23:38.896Z,51.90
2023-03-28T11:26:34.672Z,55.10
2023-03-28T11:29:49.258Z,54.80
2023-03-28T11:32:23.680Z,55.00
2023-03-28T11:35:22.111Z,53.30
2023-03-28T11:38:05.778Z,52.80
2023-03-28T11:41:07.862Z,51.90
2023-03-28T11:44:16.255Z,50.10
2023-03-28T11:46:50.844Z,51.30
2023-03-28T11:49:26.229Z,48.90
2023-03-28T11:52:13.377Z,48.70
2023-03-28T11:54:51.068Z,51.60
2023-03-28T11:57:29.239Z,51.70
2023-03-28T12:00:19.883Z,52.20
2023-03-28T12:03:51.449Z,51.50
2023-03-28T12:06:29.368Z,50.70
2023-03-28T12:09:03.941Z,48.50
2023-03-28T12:11:58.777Z,49.60
2023-03-28T12:14:52.123Z,50.20
2023-03-28T12:17:50.340Z,49.80
2023-03-28T12:20:23.881Z,50.10
2023-03-28T12:22:57.372Z,49.60
2023-03-28T12:26:07.678Z,50.10
2023-03-28T12:28:41.417Z,50.70
2023-03-28T12:31:19.712Z,50.20
2023-03-28T12:33:59.528Z,51.30
2023-03-28T12:36:57.568Z,47.80
2023-03-28T12:39:39.843Z,48.30
2023-03-28T12:42:20.543Z,46.70
2023-03-28T12:45:01.884Z,46.70
2023-03-28T12:47:36.390Z,46.80
2023-03-28T12:50:09.695Z,45.50
2023-03-28T12:52:41.916Z,47.10
2023-03-28T12:55:25.952Z,46.60
2023-03-28T12:58:22.375Z,47.90
2023-03-28T13:01:22.472Z,46.60
2023-03-28T13:04:29.823Z,48.10
2023-03-28T13:07:51.650Z,46.70
2023-03-28T13:10:29.620Z,46.20
2023-03-28T13:13:20.962Z,45.60
2023-03-28T13:16:15.393Z,47.80
2023-03-28T13:19:03.622Z,47.00
2023-03-28T13:21:56.355Z,47.60
2023-03-28T13:24:28.657Z,46.00
2023-03-28T13:26:56.622Z,46.00
2023-03-28T13:29:43.269Z,43.90
2023-03-28T13:32:17.178Z,44.60
2023-03-28T13:34:49.838Z,45.30
2023-03-28T13:37:24.857Z,44.60
2023-03-28T13:39:59.323Z,43.00
2023-03-28T13:42:35.416Z,44.90
2023-03-28T13:45:23.295Z,44.10
2023-03-28T13:47:57.067Z,44.10
2023-03-28T13:50:38.003Z,44.80
2023-03-28T13:53:04.888Z,44.10
2023-03-28T13:55:32.491Z,42.70
2023-03-28T13:58:01.583Z,43.50
2023-03-28T14:00:28.946Z,43.70
2023-03-28T14:03:03.998Z,42.00
2023-03-28T14:05:33.595Z,39.10
2023-03-28T14:08:21.922Z,39.30
2023-03-28T14:10:50.944Z,38.40
2023-03-28T14:13:24.188Z,40.00
2023-03-28T14:15:53.070Z,39.80
2023-03-28T14:18:22.780Z,38.80
2023-03-28T14:20:49.581Z,40.00
2023-03-28T14:23:31.712Z,41.50
2023-03-28T14:26:05.391Z,37.90
2023-03-28T14:28:32.829Z,39.10
2023-03-28T14:31:00.628Z,41.40
2023-03-28T14:33:34.129Z,38.20
2023-03-28T14:36:03.909Z,37.50
2023-03-28T14:38:34.537Z,38.70
2023-03-28T14:41:22.402Z,39.90
2023-03-28T14:43:55.850Z,41.10
2023-03-28T14:46:29.070Z,40.30
2023-03-28T14:48:58.904Z,38.80
2023-03-28T14:51:26.455Z,39.20
2023-03-28T14:53:53.931Z,37.70
2023-03-28T14:56:26.340Z,39.40
2023-03-28T14:58:57.673Z,38.00
2023-03-28T15:01:25.740Z,39.70
2023-03-28T15:04:12.169Z,40.80
2023-03-28T15:06:39.460Z,40.90
2023-03-28T15:09:40.134Z,40.00
2023-03-28T15:12:09.088Z,37.80
2023-03-28T15:14:42.511Z,35.70
2023-03-28T15:17:19.098Z,35.80
2023-03-28T15:19:49.264Z,35.10
2023-03-28T15:22:23.158Z,34.60
2023-03-28T15:24:50.918Z,33.70
2023-03-28T15:27:26.961Z,34.50
2023-03-28T15:29:54.724Z,33.80
2023-03-28T15:32:21.903Z,34.80
2023-03-28T15:34:59.587Z,36.30
2023-03-28T15:37:27.172Z,37.90
2023-03-28T15:39:53.903Z,38.90
2023-03-28T15:42:20.865Z,38.20
2023-03-28T15:44:59.482Z,39.60
2023-03-28T15:47:30.171Z,38.80
2023-03-28T15:50:03.631Z,37.60
2023-03-28T15:52:31.545Z,33.20
2023-03-28T15:55:00.843Z,33.10
2023-03-28T15:57:29.806Z,30.00
2023-03-28T15:59:58.285Z,28.70
2023-03-28T16:02:25.124Z,29.80
2023-03-28T16:05:06.202Z,27.10
2023-03-28T16:07:34.003Z,27.40
2023-03-28T16:10:00.694Z,27.40
2023-03-28T16:12:28.112Z,27.90
2023-03-28T16:15:18.685Z,29.70
2023-03-28T16:17:59.721Z,27.00
2023-03-28T16:20:36.374Z,27.10
2023-03-28T16:23:06.602Z,24.90
2023-03-28T16:25:33.712Z,26.90
2023-03-28T16:28:03.175Z,27.10
2023-03-28T16:30:34.950Z,26.60
2023-03-28T16:33:01.716Z,28.10
2023-03-28T16:35:28.737Z,29.40
2023-03-28T16:37:55.980Z,31.40
2023-03-28T16:40:22.893Z,34.00
2023-03-28T16:42:49.746Z,35.20
2023-03-28T16:45:16.714Z,35.10
2023-03-28T16:47:43.446Z,35.60
2023-03-28T16:50:10.580Z,33.30
2023-03-28T16:52:40.522Z,31.70
2023-03-28T16:55:17.936Z,31.30
2023-03-28T16:57:45.206Z,31.30
2023-03-28T17:00:17.678Z,30.70
2023-03-28T17:02:45.144Z,31.20
2023-03-28T17:05:11.948Z,32.60
2023-03-28T17:07:38.825Z,33.10
2023-03-28T17:10:06.696Z,33.70
2023-03-28T17:12:34.155Z,33.00
2023-03-28T17:15:00.984Z,33.10
2023-03-28T17:17:27.765Z,34.20
2023-03-28T17:19:54.452Z,35.80
2023-03-28T17:22:21.295Z,37.70
2023-03-28T17:24:48.186Z,37.60
2023-03-28T17:27:15.243Z,37.50
2023-03-28T17:29:41.942Z,37.80
2023-03-28T17:32:08.660Z,38.80
2023-03-28T17:34:36.528Z,39.90
2023-03-28T17:37:04.264Z,43.30
2023-03-28T17:39:31.764Z,45.30
2023-03-28T17:41:58.460Z,47.10
2023-03-28T17:44:25.452Z,49.40
2023-03-28T17:46:54.308Z,50.80
2023-03-28T17:49:22.431Z,52.20
2023-03-28T17:51:50.117Z,53.60
2023-03-28T17:54:17.245Z,55.50
2023-03-28T17:56:44.501Z,56.00
2023-03-28T17:59:11.811Z,56.90
2023-03-28T18:01:38.593Z,58.20
2023-03-28T18:04:05.430Z,57.90
2023-03-28T18:06:33.270Z,58.90
2023-03-28T18:08:59.934Z,59.70
2023-03-28T18:11:27.015Z,59.60
2023-03-28T18:13:57.065Z,60.00
2023-03-28T18:16:24.694Z,60.00
2023-03-28T18:18:54.083Z,60.40
2023-03-28T18:21:21.469Z,60.30
2023-03-28T18:23:48.244Z,60.50
2023-03-28T18:26:15.150Z,60.30
2023-03-28T18:28:42.045Z,60.70
2023-03-28T18:31:11.973Z,61.80
2023-03-28T18:33:39.912Z,62.10
2023-03-28T18:36:07.321Z,62.10
2023-03-28T18:38:39.485Z,61.80
2023-03-28T18:41:08.174Z,62.20
2023-03-28T18:43:37.123Z,62.20
2023-03-28T18:46:05.114Z,62.00
2023-03-28T18:48:32.572Z,62.60
2023-03-28T18:50:59.404Z,63.60
2023-03-28T18:53:27.624Z,63.70
2023-03-28T18:55:55.041Z,64.60
2023-03-28T18:58:26.114Z,66.10
2023-03-28T19:01:00.683Z,65.80
2023-03-28T19:03:29.186Z,66.30
2023-03-28T19:05:57.624Z,66.40
2023-03-28T19:08:28.022Z,67.00
2023-03-28T19:10:56.940Z,65.90
2023-03-28T19:13:24.747Z,65.90
2023-03-28T19:16:02.936Z,65.60
2023-03-28T19:18:30.317Z,65.50
2023-03-28T19:20:58.093Z,65.30
2023-03-28T19:23:27.238Z,66.70
2023-03-28T19:25:54.937Z,66.50
2023-03-28T19:28:22.338Z,66.70
2023-03-28T19:30:56.125Z,67.50
2023-03-28T19:33:22.844Z,67.90
2023-03-28T19:35:49.693Z,67.70
2023-03-28T19:38:16.393Z,67.70
2023-03-28T19:40:43.675Z,67.00
2023-03-28T19:43:10.460Z,67.60
2023-03-28T19:45:39.562Z,67.60
2023-03-28T19:48:06.408Z,68.30
2023-03-28T19:50:36.718Z,68.10
2023-03-28T19:53:04.148Z,68.20
2023-03-28T19:55:30.907Z,67.90
2023-03-28T19:57:58.240Z,68.10
2023-03-28T20:00:25.465Z,68.30
2023-03-28T20:02:52.344Z,68.90
2023-03-28T20:05:19.268Z,69.00
2023-03-28T20:07:46.020Z,68.30
2023-03-28T20:10:12.732Z,68.40
2023-03-28T20:12:39.938Z,68.00
2023-03-28T20:15:08.960Z,68.00
2023-03-28T20:17:36.197Z,67.20
2023-03-28T20:20:04.820Z,67.20
2023-03-28T20:22:34.032Z,67.70
2023-03-28T20:25:01.405Z,68.20
2023-03-28T20:27:29.121Z,69.10
2023-03-28T20:29:55.985Z,69.50
2023-03-28T20:32:22.769Z,69.00
2023-03-28T20:34:49.494Z,70.40
2023-03-28T20:37:17.337Z,70.60
2023-03-28T20:39:47.157Z,70.10
2023-03-28T20:42:14.253Z,70.00
2023-03-28T20:44:41.174Z,68.80
2023-03-28T20:47:08.755Z,69.10
2023-03-28T20:49:36.111Z,69.00
2023-03-28T20:52:02.970Z,68.50
2023-03-28T20:54:29.852Z,68.70
2023-03-28T20:56:56.577Z,69.00
2023-03-28T20:59:24.464Z,69.30
2023-03-28T21:01:51.411Z,69.40
2023-03-28T21:04:18.181Z,70.80
2023-03-28T21:06:44.899Z,72.20
2023-03-28T21:09:18.080Z,73.10
2023-03-28T21:11:45.357Z,71.60
2023-03-28T21:14:13.888Z,72.40
2023-03-28T21:16:41.016Z,73.00
2023-03-28T21:19:08.079Z,72.70
2023-03-28T21:21:34.989Z,72.30
2023-03-28T21:24:03.313Z,71.00
2023-03-28T21:26:31.205Z,71.40
2023-03-28T21:28:58.503Z,71.60
2023-03-28T21:31:27.993Z,72.00
2023-03-28T21:33:59.426Z,72.50
2023-03-28T21:36:27.152Z,72.80
2023-03-28T21:38:55.277Z,72.90
2023-03-28T21:41:22.608Z,72.30
2023-03-28T21:43:50.192Z,71.60
2023-03-28T21:46:18.298Z,71.30
2023-03-28T21:48:47.630Z,72.00
2023-03-28T21:51:15.405Z,72.50
2023-03-28T21:53:42.376Z,72.40
2023-03-28T21:56:11.447Z,72.20
2023-03-28T21:58:38.226Z,72.20
2023-03-28T22:01:05.528Z,71.60
2023-03-28T22:03:36.805Z,72.60
2023-03-28T22:06:03.697Z,71.90
2023-03-28T22:08:30.391Z,72.50
2023-03-28T22:10:58.680Z,72.80
2023-03-28T22:13:25.619Z,72.80
2023-03-28T22:15:52.810Z,73.40
2023-03-28T22:18:20.308Z,73.20
2023-03-28T22:20:53.043Z,73.20
2023-03-28T22:23:24.268Z,73.00
2023-03-28T22:25:52.855Z,72.70
2023-03-28T22:28:24.516Z,72.20
2023-03-28T22:30:55.985Z,71.70
2023-03-28T22:33:23.945Z,71.60
2023-03-28T22:35:51.592Z,71.00
2023-03-28T22:38:19.341Z,70.90
2023-03-28T22:40:47.318Z,70.30
2023-03-28T22:43:14.152Z,69.70
2023-03-28T22:45:41.492Z,70.40
2023-03-28T22:48:14.058Z,72.60
2023-03-28T22:50:44.420Z,72.70
2023-03-28T22:53:14.596Z,71.60
2023-03-28T22:55:43.517Z,71.00
2023-03-28T22:58:10.551Z,71.20
2023-03-28T23:00:37.471Z,71.60
2023-03-28T23:03:04.282Z,71.30
2023-03-28T23:05:31.883Z,71.30
2023-03-28T23:07:59.911Z,71.20
2023-03-28T23:10:27.284Z,71.60
2023-03-28T23:12:54.060Z,70.70
2023-03-28T23:15:20.757Z,65.40
2023-03-28T23:17:47.537Z,61.40
2023-03-28T23:20:19.012Z,58.70
2023-03-28T23:22:47.555Z,56.30
2023-03-28T23:25:16.888Z,54.90
2023-03-28T23:27:44.081Z,57.10
2023-03-28T23:30:13.058Z,57.30
2023-03-28T23:32:39.923Z,58.50
2023-03-28T23:35:07.421Z,59.30
2023-03-28T23:37:34.514Z,59.20
2023-03-28T23:40:02.139Z,58.70
2023-03-28T23:42:28.823Z,57.90
2023-03-28T23:44:55.491Z,56.80
2023-03-28T23:47:23.095Z,57.90
2023-03-28T23:49:49.884Z,60.50
2023-03-28T23:52:16.609Z,60.40
2023-03-28T23:54:43.492Z,60.70
2023-03-28T23:57:10.244Z,61.50
2023-03-28T23:59:37.019Z,61.30
